createdAt,value
2018-12-19T00:02:08.234Z,101927.66
2018-12-19T00:04:41.647Z,101906.90
2018-12-19T00:07:13.816Z,101925.74
2018-12-19T00:09:43.900Z,101920.58
2018-12-19T00:12:14.049Z,101924.46
2018-12-19T00:14:44.206Z,101916.00
2018-12-19T00:17:16.280Z,101917.27
2018-12-19T00:19:49.913Z,101914.95
2018-12-19T00:22:20.073Z,101912.46
2018-12-19T00:24:50.943Z,101908.41
2018-12-19T00:27:23.046Z,101909.62
2018-12-19T00:29:55.219Z,101908.05
2018-12-19T00:32:29.063Z,101912.47
2018-12-19T00:35:01.318Z,101905.05
2018-12-19T00:37:31.873Z,101905.11
2018-12-19T00:40:01.962Z,101901.62
2018-12-19T00:42:32.779Z,101908.56
2018-12-19T00:45:02.891Z,101910.54
2018-12-19T00:47:34.124Z,101908.75
2018-12-19T00:50:04.326Z,101902.66
2018-12-19T00:52:34.389Z,101905.28
2018-12-19T00:55:04.476Z,101896.34
2018-12-19T00:57:34.712Z,101908.98
2018-12-19T01:00:06.567Z,101917.56
2018-12-19T01:02:37.202Z,101911.77
2018-12-19T01:05:07.272Z,101912.45
2018-12-19T01:07:39.096Z,101909.61
2018-12-19T01:10:09.256Z,101907.58
2018-12-19T01:12:39.485Z,101901.88
2018-12-19T01:15:09.578Z,101899.55
2018-12-19T01:17:39.652Z,101901.15
2018-12-19T01:20:09.710Z,101903.11
2018-12-19T01:22:39.885Z,101896.97
2018-12-19T01:25:09.933Z,101890.14
2018-12-19T01:27:40.154Z,101884.08
2018-12-19T01:30:10.209Z,101884.08
2018-12-19T01:32:40.352Z,101883.02
2018-12-19T01:35:10.393Z,101874.30
2018-12-19T01:37:40.466Z,101859.53
2018-12-19T01:40:10.536Z,101861.66
2018-12-19T01:42:40.698Z,101858.84
2018-12-19T01:45:10.745Z,101852.45
2018-12-19T01:47:40.827Z,101843.37
2018-12-19T01:50:10.869Z,101833.79
2018-12-19T01:52:41.067Z,101834.14
2018-12-19T01:55:11.128Z,101833.16
2018-12-19T01:57:41.178Z,101832.72
2018-12-19T02:00:11.260Z,101829.11
2018-12-19T02:02:41.307Z,101823.36
2018-12-19T02:05:11.363Z,101817.67
2018-12-19T02:07:41.460Z,101822.44
2018-12-19T02:10:11.497Z,101814.34
2018-12-19T02:12:41.554Z,101813.92
2018-12-19T02:15:11.617Z,101813.92
2018-12-19T02:17:41.693Z,101809.31
2018-12-19T02:20:11.795Z,101813.52
2018-12-19T02:22:42.024Z,101811.38
2018-12-19T02:25:12.067Z,101803.73
2018-12-19T02:27:42.163Z,101803.69
2018-12-19T02:30:12.203Z,101803.73
2018-12-19T02:32:42.501Z,101794.18
2018-12-19T02:35:12.538Z,101789.78
2018-12-19T02:37:42.739Z,101788.39
2018-12-19T02:40:12.913Z,101792.36
2018-12-19T02:42:42.977Z,101796.63
2018-12-19T02:45:13.056Z,101801.52
2018-12-19T02:47:43.104Z,101805.77
2018-12-19T02:50:13.132Z,101808.75
2018-12-19T02:52:43.200Z,101812.34
2018-12-19T02:55:13.246Z,101816.95
2018-12-19T02:57:43.277Z,101811.98
2018-12-19T03:00:13.379Z,101820.00
2018-12-19T03:02:43.421Z,101817.91
2018-12-19T03:05:13.513Z,101815.25
2018-12-19T03:07:43.763Z,101815.04
2018-12-19T03:10:13.931Z,101822.16
2018-12-19T03:12:43.970Z,101824.21
2018-12-19T03:15:14.025Z,101820.47
2018-12-19T03:17:44.106Z,101814.69
2018-12-19T03:20:14.200Z,101814.98
2018-12-19T03:22:44.366Z,101814.82
2018-12-19T03:25:14.407Z,101816.22
2018-12-19T03:27:44.480Z,101810.23
2018-12-19T03:30:14.514Z,101804.67
2018-12-19T03:32:45.721Z,101811.06
2018-12-19T03:35:15.846Z,101809.84
2018-12-19T03:37:45.977Z,101811.11
2018-12-19T03:40:16.025Z,101811.23
2018-12-19T03:42:46.099Z,101818.98
2018-12-19T03:45:16.163Z,101819.05
2018-12-19T03:47:46.445Z,101817.27
2018-12-19T03:50:16.504Z,101814.70
2018-12-19T03:52:46.589Z,101812.03
2018-12-19T03:55:16.635Z,101811.88
2018-12-19T03:57:46.839Z,101810.91
2018-12-19T04:00:16.922Z,101807.84
2018-12-19T04:02:47.132Z,101807.23
2018-12-19T04:05:17.177Z,101805.23
2018-12-19T04:07:47.248Z,101808.46
2018-12-19T04:10:17.411Z,101803.85
2018-12-19T04:12:47.457Z,101804.37
2018-12-19T04:15:17.601Z,101794.03
2018-12-19T04:17:47.731Z,101786.09
2018-12-19T04:20:17.945Z,101786.61
2018-12-19T04:22:48.009Z,101780.98
2018-12-19T04:25:18.112Z,101792.61
2018-12-19T04:27:48.175Z,101790.51
2018-12-19T04:30:18.234Z,101786.77
2018-12-19T04:32:48.637Z,101793.32
2018-12-19T04:35:18.823Z,101796.18
2018-12-19T04:37:48.930Z,101793.73
2018-12-19T04:40:19.012Z,101794.09
2018-12-19T04:42:49.060Z,101789.69
2018-12-19T04:45:19.141Z,101794.75
2018-12-19T04:47:49.209Z,101793.17
2018-12-19T04:50:19.283Z,101787.03
2018-12-19T04:52:49.355Z,101781.05
2018-12-19T04:55:19.385Z,101774.75
2018-12-19T04:57:49.445Z,101775.98
2018-12-19T05:00:19.525Z,101775.12
2018-12-19T05:02:49.584Z,101768.98
2018-12-19T05:05:19.898Z,101775.98
2018-12-19T05:07:50.302Z,101771.94
2018-12-19T05:10:20.354Z,101766.27
2018-12-19T05:12:50.477Z,101770.72
2018-12-19T05:15:20.521Z,101772.34
2018-12-19T05:17:50.573Z,101765.80
2018-12-19T05:20:20.610Z,101770.92
2018-12-19T05:22:50.654Z,101766.31
2018-12-19T05:25:20.759Z,101759.26
2018-12-19T05:27:50.821Z,101763.76
2018-12-19T05:30:21.104Z,101760.74
2018-12-19T05:32:51.192Z,101760.89
2018-12-19T05:35:21.249Z,101758.28
2018-12-19T05:37:51.345Z,101763.66
2018-12-19T05:40:21.452Z,101761.97
2018-12-19T05:42:51.513Z,101765.09
2018-12-19T05:45:21.534Z,101765.91
2018-12-19T05:47:51.619Z,101766.32
2018-12-19T05:50:24.302Z,101761.52
2018-12-19T05:52:54.422Z,101758.65
2018-12-19T05:55:24.492Z,101752.52
2018-12-19T05:57:54.560Z,101755.42
2018-12-19T06:00:24.593Z,101753.94
2018-12-19T06:02:56.684Z,101754.34
2018-12-19T06:05:26.766Z,101750.56
2018-12-19T06:07:56.805Z,101744.42
2018-12-19T06:10:26.950Z,101741.56
2018-12-19T06:12:57.125Z,101742.19
2018-12-19T06:15:27.336Z,101739.81
2018-12-19T06:17:59.432Z,101736.28
2018-12-19T06:20:29.492Z,101734.05
2018-12-19T06:22:59.559Z,101730.62
2018-12-19T06:25:29.644Z,101730.98
2018-12-19T06:27:59.793Z,101735.89
2018-12-19T06:30:30.435Z,101739.11
2018-12-19T06:33:00.530Z,101729.75
2018-12-19T06:35:30.643Z,101730.47
2018-12-19T06:38:02.203Z,101729.02
2018-12-19T06:40:37.524Z,101729.04
2018-12-19T06:43:07.594Z,101722.84
2018-12-19T06:45:37.657Z,101715.44
2018-12-19T06:48:07.690Z,101718.19
2018-12-19T06:50:37.810Z,101723.41
2018-12-19T06:53:08.031Z,101712.94
2018-12-19T06:55:38.105Z,101701.69
2018-12-19T06:58:08.229Z,101699.06
2018-12-19T07:00:39.060Z,101702.14
2018-12-19T07:03:09.147Z,101695.13
2018-12-19T07:05:39.153Z,101701.78
2018-12-19T07:08:09.308Z,101709.55
2018-12-19T07:10:39.439Z,101704.80
2018-12-19T07:13:09.644Z,101703.56
2018-12-19T07:15:39.904Z,101700.77
2018-12-19T07:18:10.093Z,101706.03
2018-12-19T07:20:40.355Z,101705.97
2018-12-19T07:23:10.498Z,101702.55
2018-12-19T07:25:41.793Z,101696.25
2018-12-19T07:28:11.878Z,101692.38
2018-12-19T07:30:42.077Z,101691.61
2018-12-19T07:33:12.960Z,101683.99
2018-12-19T07:35:43.119Z,101687.05
2018-12-19T07:38:14.240Z,101684.23
2018-12-19T07:40:45.747Z,101680.00
2018-12-19T07:43:16.068Z,101679.02
2018-12-19T07:45:46.271Z,101679.70
2018-12-19T07:48:16.508Z,101678.56
2018-12-19T07:50:47.920Z,101676.94
2018-12-19T07:53:18.008Z,101676.83
2018-12-19T07:55:48.505Z,101672.59
2018-12-19T07:58:18.762Z,101670.38
2018-12-19T08:00:48.953Z,101671.89
2018-12-19T08:03:19.085Z,101678.98
2018-12-19T08:05:49.229Z,101682.09
2018-12-19T08:08:19.471Z,101678.03
2018-12-19T08:10:52.350Z,101686.68
2018-12-19T08:13:21.910Z,101683.05
2018-12-19T08:15:52.071Z,101685.03
2018-12-19T08:18:22.120Z,101684.00
2018-12-19T08:20:52.253Z,101680.28
2018-12-19T08:23:22.449Z,101679.77
2018-12-19T08:25:52.691Z,101670.45
2018-12-19T08:28:22.772Z,101671.71
2018-12-19T08:30:52.873Z,101675.60
2018-12-19T08:33:23.037Z,101686.95
2018-12-19T08:35:53.245Z,101680.45
2018-12-19T08:38:23.359Z,101674.11
2018-12-19T08:40:58.696Z,101679.59
2018-12-19T08:43:26.756Z,101675.20
2018-12-19T08:45:59.225Z,101683.83
2018-12-19T08:48:29.301Z,101676.88
2018-12-19T08:50:59.421Z,101674.20
2018-12-19T08:53:29.734Z,101669.80
2018-12-19T08:55:59.855Z,101665.75
2018-12-19T08:58:30.076Z,101663.14
2018-12-19T09:01:00.156Z,101652.49
2018-12-19T09:03:34.849Z,101656.08
2018-12-19T09:06:05.024Z,101648.91
2018-12-19T09:08:35.240Z,101654.43
2018-12-19T09:11:06.048Z,101651.11
2018-12-19T09:13:36.305Z,101655.47
2018-12-19T09:16:10.364Z,101647.70
2018-12-19T09:18:40.484Z,101663.55
2018-12-19T09:21:21.388Z,101657.08
2018-12-19T09:23:51.449Z,101659.27
2018-12-19T09:26:21.775Z,101656.63
2018-12-19T09:28:51.828Z,101653.27
2018-12-19T09:31:22.072Z,101651.45
2018-12-19T09:33:52.445Z,101640.15
2018-12-19T09:36:23.675Z,101651.80
2018-12-19T09:38:54.035Z,101641.89
2018-12-19T09:41:25.027Z,101627.84
2018-12-19T09:43:55.115Z,101627.39
2018-12-19T09:46:25.198Z,101622.76
2018-12-19T09:48:55.242Z,101616.28
2018-12-19T09:51:25.372Z,101627.05
2018-12-19T09:53:55.616Z,101611.55
2018-12-19T09:56:25.825Z,101607.24
2018-12-19T09:58:55.877Z,101604.16
2018-12-19T10:01:26.108Z,101598.23
2018-12-19T10:03:56.290Z,101596.07
2018-12-19T10:06:26.370Z,101592.24
2018-12-19T10:08:56.387Z,101596.31
2018-12-19T10:11:26.741Z,101585.63
2018-12-19T10:13:57.522Z,101587.09
2018-12-19T10:16:27.587Z,101576.58
2018-12-19T10:18:57.651Z,101567.58
2018-12-19T10:21:27.686Z,101560.08
2018-12-19T10:23:57.889Z,101555.60
2018-12-19T10:26:27.928Z,101549.45
2018-12-19T10:28:58.022Z,101551.27
2018-12-19T10:31:28.112Z,101550.69
2018-12-19T10:33:58.262Z,101540.98
2018-12-19T10:36:38.644Z,101540.28
2018-12-19T10:39:15.285Z,101532.38
2018-12-19T10:41:45.452Z,101536.09
2018-12-19T10:44:15.737Z,101528.27
2018-12-19T10:46:45.857Z,101529.27
2018-12-19T10:49:15.925Z,101530.30
2018-12-19T10:51:46.093Z,101530.59
2018-12-19T10:54:16.226Z,101527.63
2018-12-19T10:56:46.325Z,101533.81
2018-12-19T10:59:16.498Z,101534.00
2018-12-19T11:01:46.721Z,101523.52
2018-12-19T11:20:48.383Z,101503.48
2018-12-19T11:23:22.170Z,101502.41
2018-12-19T11:25:52.272Z,101506.98
2018-12-19T11:28:22.321Z,101501.07
2018-12-19T11:30:52.421Z,101497.05
2018-12-19T11:33:22.566Z,101486.54
2018-12-19T11:35:52.616Z,101487.58
2018-12-19T11:38:22.691Z,101484.37
2018-12-19T11:40:52.784Z,101482.06
2018-12-19T11:43:23.147Z,101481.30
2018-12-19T11:45:53.191Z,101476.97
2018-12-19T11:49:10.695Z,101475.80
2018-12-19T11:57:43.959Z,101464.61
2018-12-19T12:00:21.121Z,101462.41
2018-12-19T12:02:58.058Z,101462.86
2018-12-19T12:05:28.697Z,101468.04
2018-12-19T12:08:00.504Z,101463.67
2018-12-19T12:10:31.749Z,101454.94
2018-12-19T12:13:02.681Z,101460.20
2018-12-19T12:15:33.537Z,101459.70
2018-12-19T12:18:04.471Z,101444.48
2018-12-19T12:20:35.563Z,101438.19
2018-12-19T12:23:07.153Z,101434.52
2018-12-19T12:25:37.790Z,101431.89
2018-12-19T12:28:08.793Z,101430.98
2018-12-19T12:30:39.425Z,101428.47
2018-12-19T12:33:09.510Z,101429.20
2018-12-19T12:35:40.023Z,101425.25
2018-12-19T12:38:10.087Z,101417.59
2018-12-19T12:40:40.208Z,101407.38
2018-12-19T12:43:10.555Z,101416.23
2018-12-19T12:45:41.917Z,101410.76
2018-12-19T12:48:12.199Z,101405.77
2018-12-19T12:50:42.303Z,101396.65
2018-12-19T12:53:12.415Z,101397.37
2018-12-19T12:55:42.508Z,101397.48
2018-12-19T12:58:13.522Z,101400.43
2018-12-19T13:00:43.521Z,101413.89
2018-12-19T13:03:13.928Z,101415.62
2018-12-19T13:05:44.050Z,101400.77
2018-12-19T13:08:14.335Z,101397.81
2018-12-19T13:10:44.526Z,101394.84
2018-12-19T13:13:16.436Z,101394.58
2018-12-19T13:15:47.781Z,101397.78
2018-12-19T13:18:36.367Z,101391.83
2018-12-19T13:21:32.440Z,101392.95
2018-12-19T13:24:03.804Z,101399.69
2018-12-19T13:26:36.039Z,101382.49
2018-12-19T13:29:06.783Z,101395.56
2018-12-19T13:31:38.637Z,101393.44
2018-12-19T13:34:09.213Z,101394.41
2018-12-19T13:36:40.069Z,101396.13
2018-12-19T13:39:10.391Z,101387.93
2018-12-19T13:41:41.122Z,101389.09
2018-12-19T13:44:11.266Z,101388.33
2018-12-19T13:46:42.057Z,101380.17
2018-12-19T13:49:12.611Z,101392.55
2018-12-19T13:51:42.866Z,101392.77
2018-12-19T13:54:12.939Z,101385.70
2018-12-19T13:56:43.076Z,101389.02
2018-12-19T13:59:13.753Z,101391.94
2018-12-19T14:01:43.901Z,101390.24
2018-12-19T14:04:13.995Z,101395.03
2018-12-19T14:06:44.097Z,101397.27
2018-12-19T14:09:14.136Z,101390.78
2018-12-19T14:11:44.185Z,101380.69
2018-12-19T14:14:14.256Z,101376.22
2018-12-19T14:16:44.325Z,101376.30
2018-12-19T14:19:14.387Z,101373.98
2018-12-19T14:21:44.552Z,101384.98
2018-12-19T14:24:14.632Z,101386.20
2018-12-19T14:26:44.694Z,101383.55
2018-12-19T14:29:14.788Z,101375.39
2018-12-19T14:31:44.847Z,101373.55
2018-12-19T14:34:14.893Z,101369.95
2018-12-19T14:36:45.066Z,101376.69
2018-12-19T14:39:15.287Z,101378.06
2018-12-19T14:41:45.505Z,101364.66
2018-12-19T14:44:15.553Z,101365.81
2018-12-19T14:46:45.629Z,101361.99
2018-12-19T14:49:15.656Z,101370.60
2018-12-19T14:51:46.061Z,101372.73
2018-12-19T14:54:16.272Z,101372.01
2018-12-19T14:56:46.583Z,101373.27
2018-12-19T14:59:17.189Z,101373.81
2018-12-19T15:01:47.393Z,101378.46
2018-12-19T15:04:17.601Z,101377.45
2018-12-19T15:06:47.816Z,101367.65
2018-12-19T15:09:17.868Z,101371.36
2018-12-19T15:11:48.041Z,101364.30
2018-12-19T15:14:18.079Z,101359.72
2018-12-19T15:16:48.137Z,101366.20
2018-12-19T15:19:18.202Z,101358.35
2018-12-19T15:21:48.349Z,101358.28
2018-12-19T15:24:18.514Z,101355.54
2018-12-19T15:26:48.595Z,101357.27
2018-12-19T15:29:18.677Z,101357.81
2018-12-19T15:31:48.841Z,101359.86
2018-12-19T15:34:18.888Z,101361.45
2018-12-19T15:36:48.961Z,101358.56
2018-12-19T15:39:19.010Z,101354.78
2018-12-19T15:41:49.049Z,101363.82
2018-12-19T15:44:19.092Z,101358.73
2018-12-19T15:46:49.143Z,101359.97
2018-12-19T15:49:19.174Z,101360.52
2018-12-19T15:51:49.219Z,101358.41
2018-12-19T15:54:19.274Z,101359.42
2018-12-19T15:56:49.381Z,101357.88
2018-12-19T15:59:19.450Z,101353.62
2018-12-19T16:01:49.657Z,101349.16
2018-12-19T16:04:19.757Z,101343.81
2018-12-19T16:06:51.481Z,101339.27
2018-12-19T16:09:21.778Z,101338.08
2018-12-19T16:11:51.782Z,101335.13
2018-12-19T16:14:21.882Z,101338.08
2018-12-19T16:16:51.967Z,101335.59
2018-12-19T16:19:22.034Z,101335.20
2018-12-19T16:21:52.029Z,101336.03
2018-12-19T16:24:22.924Z,101340.19
2018-12-19T16:26:52.981Z,101333.27
2018-12-19T16:29:23.066Z,101333.84
2018-12-19T16:31:53.091Z,101331.73
2018-12-19T16:34:23.157Z,101333.94
2018-12-19T16:36:53.281Z,101334.26
2018-12-19T16:39:23.506Z,101329.13
2018-12-19T16:41:53.545Z,101339.79
2018-12-19T16:44:24.054Z,101333.98
2018-12-19T16:46:54.084Z,101329.23
2018-12-19T16:49:24.151Z,101328.55
2018-12-19T16:51:54.246Z,101333.22
2018-12-19T16:54:24.372Z,101330.55
2018-12-19T16:56:54.444Z,101336.48
2018-12-19T16:59:24.556Z,101337.56
2018-12-19T17:01:54.688Z,101330.06
2018-12-19T17:04:24.813Z,101318.06
2018-12-19T17:06:54.997Z,101324.87
2018-12-19T17:09:25.093Z,101316.34
2018-12-19T17:11:55.238Z,101313.89
2018-12-19T17:14:25.354Z,101301.00
2018-12-19T17:16:55.390Z,101309.28
2018-12-19T17:19:25.450Z,101314.00
2018-12-19T17:21:55.467Z,101311.77
2018-12-19T17:24:30.790Z,101305.11
2018-12-19T17:27:00.769Z,101307.05
2018-12-19T17:29:30.901Z,101306.22
2018-12-19T17:32:01.074Z,101308.06
2018-12-19T17:34:31.098Z,101302.05
2018-12-19T17:37:01.089Z,101296.72
2018-12-19T17:39:31.224Z,101302.48
2018-12-19T17:42:01.280Z,101304.66
2018-12-19T17:44:37.825Z,101297.49
2018-12-19T17:47:07.872Z,101296.05
2018-12-19T17:49:37.950Z,101291.58
2018-12-19T17:52:08.018Z,101289.29
2018-12-19T17:54:38.126Z,101282.78
2018-12-19T17:57:08.129Z,101284.40
2018-12-19T17:59:38.180Z,101281.34
2018-12-19T18:02:08.213Z,101286.52
2018-12-19T18:04:38.304Z,101285.39
2018-12-19T18:07:08.356Z,101285.53
2018-12-19T18:09:38.382Z,101282.21
2018-12-19T18:12:08.489Z,101279.01
2018-12-19T18:14:38.482Z,101280.86
2018-12-19T18:17:08.499Z,101278.89
2018-12-19T18:19:38.511Z,101275.22
2018-12-19T18:22:08.516Z,101273.59
2018-12-19T18:24:39.530Z,101276.44
2018-12-19T18:27:09.623Z,101279.73
2018-12-19T18:29:39.649Z,101277.26
2018-12-19T18:32:09.663Z,101282.19
2018-12-19T18:34:39.667Z,101281.51
2018-12-19T18:37:09.743Z,101272.27
2018-12-19T18:39:39.809Z,101269.16
2018-12-19T18:42:09.859Z,101269.42
2018-12-19T18:44:39.880Z,101273.63
2018-12-19T18:47:10.914Z,101266.50
2018-12-19T18:49:40.920Z,101264.73
2018-12-19T18:52:11.656Z,101259.37
2018-12-19T18:54:41.734Z,101270.89
2018-12-19T18:57:13.290Z,101265.52
2018-12-19T18:59:48.052Z,101270.30
2018-12-19T19:02:18.119Z,101272.50
2018-12-19T19:04:48.338Z,101264.45
2018-12-19T19:07:18.469Z,101269.34
2018-12-19T19:12:50.180Z,101262.75
2018-12-19T19:15:20.238Z,101258.39
2018-12-19T19:17:50.342Z,101264.05
2018-12-19T19:20:20.382Z,101267.04
2018-12-19T19:22:50.529Z,101267.66
2018-12-19T19:25:20.720Z,101259.52
2018-12-19T19:27:50.924Z,101261.41
2018-12-19T19:30:20.937Z,101260.95
2018-12-19T19:32:51.496Z,101261.75
2018-12-19T19:35:21.505Z,101256.77
2018-12-19T19:37:51.566Z,101253.56
2018-12-19T19:40:22.739Z,101251.37
2018-12-19T19:42:52.859Z,101251.77
2018-12-19T19:45:22.881Z,101246.86
2018-12-19T19:47:52.939Z,101248.16
2018-12-19T19:50:22.994Z,101250.01
2018-12-19T19:52:53.205Z,101250.84
2018-12-19T19:55:23.267Z,101246.70
2018-12-19T19:57:53.501Z,101259.39
2018-12-19T20:00:31.721Z,101253.67
2018-12-19T20:03:02.302Z,101254.16
2018-12-19T20:05:32.493Z,101249.72
2018-12-19T20:08:02.600Z,101256.34
2018-12-19T20:10:32.787Z,101242.78
2018-12-19T20:13:03.259Z,101244.66
2018-12-19T20:15:33.406Z,101246.64
2018-12-19T20:18:04.078Z,101240.71
2018-12-19T20:20:34.212Z,101234.84
2018-12-19T20:23:04.504Z,101236.56
2018-12-19T20:25:34.721Z,101234.44
2018-12-19T20:28:04.926Z,101231.55
2018-12-19T20:30:35.080Z,101230.92
2018-12-19T20:33:05.239Z,101232.62
2018-12-19T20:35:35.546Z,101237.16
2018-12-19T20:38:05.681Z,101237.27
2018-12-19T20:40:35.898Z,101240.94
2018-12-19T20:43:06.683Z,101242.27
2018-12-19T20:45:38.310Z,101242.02
2018-12-19T20:48:08.363Z,101239.49
2018-12-19T20:50:38.472Z,101241.03
2018-12-19T20:53:08.535Z,101244.63
2018-12-19T20:55:38.631Z,101248.02
2018-12-19T20:58:08.774Z,101246.22
2018-12-19T21:00:38.930Z,101243.58
2018-12-19T21:03:08.961Z,101243.75
2018-12-19T21:05:39.152Z,101243.45
2018-12-19T21:08:09.261Z,101242.43
2018-12-19T21:10:39.434Z,101235.47
2018-12-19T21:13:09.507Z,101220.56
2018-12-19T21:15:39.621Z,101228.46
2018-12-19T21:18:15.381Z,101225.09
2018-12-19T21:20:45.465Z,101229.38
2018-12-19T21:23:15.517Z,101224.89
2018-12-19T21:25:45.569Z,101230.95
2018-12-19T21:28:15.725Z,101228.42
2018-12-19T21:30:46.097Z,101228.50
2018-12-19T21:33:16.565Z,101221.38
2018-12-19T21:35:46.679Z,101234.88
2018-12-19T21:38:16.970Z,101228.56
2018-12-19T21:40:47.004Z,101239.80
2018-12-19T21:43:17.072Z,101235.41
2018-12-19T21:45:51.725Z,101229.01
2018-12-19T21:48:19.471Z,101237.25
2018-12-19T21:50:49.608Z,101238.71
2018-12-19T21:53:19.847Z,101233.03
2018-12-19T21:55:50.099Z,101242.07
2018-12-19T21:58:20.177Z,101244.73
2018-12-19T22:00:50.240Z,101233.01
2018-12-19T22:03:20.415Z,101235.99
2018-12-19T22:05:50.587Z,101234.37
2018-12-19T22:08:20.725Z,101237.23
2018-12-19T22:10:50.840Z,101234.17
2018-12-19T22:13:21.173Z,101234.95
2018-12-19T22:15:51.609Z,101237.84
2018-12-19T22:18:27.013Z,101240.48
2018-12-19T22:20:57.503Z,101235.25
2018-12-19T22:23:27.698Z,101229.63
2018-12-19T22:25:58.182Z,101229.84
2018-12-19T22:28:28.456Z,101230.72
2018-12-19T22:30:58.575Z,101222.10
2018-12-19T22:33:28.666Z,101226.91
2018-12-19T22:35:59.184Z,101224.59
2018-12-19T22:38:29.334Z,101228.34
2018-12-19T22:40:59.585Z,101225.46
2018-12-19T22:43:29.884Z,101225.38
2018-12-19T22:46:00.079Z,101214.87
2018-12-19T22:48:30.231Z,101220.82
2018-12-19T22:51:00.465Z,101226.47
2018-12-19T22:53:30.513Z,101229.19
2018-12-19T22:56:00.586Z,101222.38
2018-12-19T22:58:30.789Z,101218.47
2018-12-19T23:01:06.094Z,101219.58
2018-12-19T23:03:41.331Z,101215.88
2018-12-19T23:06:11.423Z,101213.36
2018-12-19T23:08:41.794Z,101218.38
2018-12-19T23:11:11.950Z,101226.86
2018-12-19T23:13:42.017Z,101225.27
2018-12-19T23:16:11.519Z,101223.87
2018-12-19T23:18:47.299Z,101233.83
2018-12-19T23:21:23.101Z,101226.24
2018-12-19T23:23:58.877Z,101222.10
2018-12-19T23:26:31.061Z,101223.56
2018-12-19T23:29:03.365Z,101220.98
2018-12-19T23:31:35.055Z,101221.36
2018-12-19T23:34:05.184Z,101219.36
2018-12-19T23:36:35.355Z,101218.80
2018-12-19T23:39:07.801Z,101214.42
2018-12-19T23:41:37.950Z,101208.39
2018-12-19T23:44:08.107Z,101206.81
2018-12-19T23:46:38.141Z,101199.53
2018-12-19T23:49:08.236Z,101196.47
2018-12-19T23:51:38.283Z,101196.30
2018-12-19T23:54:08.397Z,101191.05
2018-12-19T23:56:38.474Z,101185.38
2018-12-19T23:59:08.574Z,101183.11
